createdAt,value
2022-11-12T00:02:38.808Z,5.95
2022-11-12T00:05:23.635Z,6.82
2022-11-12T00:08:08.359Z,17.77
2022-11-12T00:10:53.118Z,18.88
2022-11-12T00:13:37.893Z,9.48
2022-11-12T00:16:22.956Z,9.35
2022-11-12T00:19:07.764Z,4.68
2022-11-12T00:21:52.569Z,3.90
2022-11-12T00:24:37.452Z,6.43
2022-11-12T00:27:22.227Z,7.28
2022-11-12T00:30:07.296Z,5.80
2022-11-12T00:32:52.123Z,9.55
2022-11-12T00:35:36.987Z,9.60
2022-11-12T00:38:21.812Z,16.75
2022-11-12T00:41:07.241Z,9.07
2022-11-12T00:43:52.055Z,20.60
2022-11-12T00:46:36.867Z,15.82
2022-11-12T00:49:21.842Z,20.95
2022-11-12T00:52:06.810Z,38.20
2022-11-12T00:54:51.617Z,22.95
2022-11-12T00:57:36.367Z,21.10
2022-11-12T01:00:21.331Z,19.08
2022-11-12T01:03:06.055Z,31.60
2022-11-12T01:05:51.014Z,17.60
2022-11-12T01:08:36.030Z,4.53
2022-11-12T01:11:22.731Z,3.28
2022-11-12T01:14:08.280Z,3.58
2022-11-12T01:16:53.229Z,2.47
2022-11-12T01:19:38.003Z,3.20
2022-11-12T01:22:23.129Z,2.65
2022-11-12T01:25:08.157Z,4.78
2022-11-12T01:27:53.491Z,4.57
2022-11-12T01:30:38.156Z,3.10
2022-11-12T01:33:23.035Z,2.72
2022-11-12T01:36:08.138Z,3.53
2022-11-12T01:38:54.161Z,5.80
2022-11-12T01:41:40.399Z,5.25
2022-11-12T01:44:29.191Z,3.65
2022-11-12T01:47:21.725Z,3.92
2022-11-12T01:50:13.148Z,5.03
2022-11-12T01:53:01.826Z,8.85
2022-11-12T01:55:46.892Z,3.65
2022-11-12T01:58:32.290Z,5.03
2022-11-12T02:01:17.424Z,9.20
2022-11-12T02:04:01.988Z,6.43
2022-11-12T02:06:47.948Z,3.60
2022-11-12T02:09:33.363Z,6.97
2022-11-12T02:12:37.158Z,3.50
2022-11-12T02:15:22.226Z,8.75
2022-11-12T02:18:06.988Z,3.85
2022-11-12T02:20:56.867Z,5.32
2022-11-12T02:23:41.671Z,6.97
2022-11-12T02:26:28.093Z,4.85
2022-11-12T02:29:13.346Z,8.60
2022-11-12T02:31:58.518Z,8.13
2022-11-12T02:34:43.274Z,3.80
2022-11-12T02:37:28.093Z,3.65
2022-11-12T02:40:12.959Z,3.67
2022-11-12T02:42:57.982Z,4.28
2022-11-12T02:45:42.786Z,3.38
2022-11-12T02:48:28.089Z,3.50
2022-11-12T02:51:13.035Z,3.45
2022-11-12T02:53:57.887Z,6.28
2022-11-12T02:56:42.654Z,4.07
2022-11-12T02:59:27.359Z,4.18
2022-11-12T03:02:12.510Z,4.70
2022-11-12T03:04:57.293Z,5.70
2022-11-12T03:07:42.712Z,6.10
2022-11-12T03:10:27.980Z,4.18
2022-11-12T03:13:12.862Z,3.95
2022-11-12T03:16:00.904Z,5.13
2022-11-12T03:18:45.532Z,5.40
2022-11-12T03:21:30.546Z,4.40
2022-11-12T03:24:15.337Z,6.25
2022-11-12T03:27:00.196Z,7.65
2022-11-12T03:29:45.011Z,12.55
2022-11-12T03:32:29.778Z,5.15
2022-11-12T03:35:14.639Z,13.20
2022-11-12T03:37:59.675Z,14.88
2022-11-12T03:40:44.851Z,15.63
2022-11-12T03:43:29.639Z,42.60
2022-11-12T03:46:14.612Z,43.85
2022-11-12T03:48:59.937Z,38.63
2022-11-12T03:51:44.831Z,12.82
2022-11-12T03:54:29.738Z,15.32
2022-11-12T03:57:14.532Z,27.73
2022-11-12T03:59:59.399Z,21.67
2022-11-12T04:02:44.262Z,20.73
2022-11-12T04:05:48.087Z,10.93
2022-11-12T04:08:36.200Z,19.85
2022-11-12T04:11:21.057Z,11.85
2022-11-12T04:14:05.877Z,9.18
2022-11-12T04:17:09.364Z,17.10
2022-11-12T04:20:13.201Z,15.75
2022-11-12T04:22:58.321Z,7.72
2022-11-12T04:26:02.321Z,8.02
2022-11-12T04:29:06.085Z,10.27
2022-11-12T04:31:51.076Z,7.20
2022-11-12T04:34:36.140Z,25.95
2022-11-12T04:37:23.680Z,17.25
2022-11-12T04:40:28.814Z,10.30
2022-11-12T04:43:33.721Z,20.77
2022-11-12T04:46:18.742Z,12.65
2022-11-12T04:49:03.655Z,29.38
2022-11-12T04:52:06.754Z,11.18
2022-11-12T04:54:51.668Z,8.75
2022-11-12T04:57:37.352Z,7.10
2022-11-12T05:03:11.116Z,7.40
2022-11-12T05:06:03.230Z,26.38
2022-11-12T05:08:48.302Z,34.00
2022-11-12T05:11:32.983Z,21.73
2022-11-12T05:14:18.171Z,8.65
2022-11-12T05:17:03.347Z,18.00
2022-11-12T05:19:48.492Z,11.13
2022-11-12T05:22:45.506Z,14.73
2022-11-12T05:25:35.856Z,9.25
2022-11-12T05:28:20.725Z,12.65
2022-11-12T05:31:05.623Z,9.93
2022-11-12T05:33:50.530Z,9.30
2022-11-12T05:36:35.299Z,8.45
2022-11-12T05:39:19.980Z,39.35
2022-11-12T05:42:13.692Z,8.80
2022-11-12T05:44:59.379Z,10.63
2022-11-12T05:47:44.159Z,6.75
2022-11-12T05:50:34.810Z,11.15
2022-11-12T05:53:24.955Z,6.47
2022-11-12T05:56:10.062Z,9.55
2022-11-12T05:58:55.248Z,9.27
2022-11-12T06:01:44.094Z,12.52
2022-11-12T06:04:29.232Z,7.05
2022-11-12T06:07:14.100Z,7.65
2022-11-12T06:09:59.004Z,14.07
2022-11-12T06:12:43.773Z,7.80
2022-11-12T06:15:28.531Z,7.80
2022-11-12T06:18:13.315Z,5.47
2022-11-12T06:21:19.985Z,8.98
2022-11-12T06:24:05.208Z,8.55
2022-11-12T06:26:50.171Z,10.90
2022-11-12T06:29:35.006Z,7.47
2022-11-12T06:32:19.966Z,9.18
2022-11-12T06:35:04.844Z,7.97
2022-11-12T06:37:50.015Z,8.07
2022-11-12T06:40:35.069Z,6.63
2022-11-12T06:43:20.122Z,5.95
2022-11-12T06:46:06.455Z,7.25
2022-11-12T06:48:51.200Z,7.07
2022-11-12T06:51:36.166Z,8.30
2022-11-12T06:54:20.812Z,9.40
2022-11-12T06:57:05.574Z,8.20
2022-11-12T06:59:50.340Z,15.88
2022-11-12T07:02:36.130Z,11.52
2022-11-12T07:05:20.877Z,9.13
2022-11-12T07:08:06.062Z,12.23
2022-11-12T07:10:55.289Z,17.75
2022-11-12T07:13:40.097Z,19.13
2022-11-12T07:16:25.016Z,9.65
2022-11-12T07:19:09.710Z,15.20
2022-11-12T07:21:54.494Z,13.35
2022-11-12T07:24:39.398Z,15.70
2022-11-12T07:27:24.076Z,10.63
2022-11-12T07:30:09.198Z,13.38
2022-11-12T07:32:57.295Z,10.90
2022-11-12T07:35:42.132Z,30.08
2022-11-12T07:38:28.545Z,19.95
2022-11-12T07:41:14.889Z,10.63
2022-11-12T07:43:59.926Z,9.43
2022-11-12T07:46:44.656Z,10.88
2022-11-12T07:49:29.485Z,9.68
2022-11-12T07:52:14.269Z,10.70
2022-11-12T07:54:59.075Z,9.18
2022-11-12T07:57:43.824Z,26.90
2022-11-12T08:00:28.597Z,10.43
2022-11-12T08:03:13.570Z,23.85
2022-11-12T08:05:59.903Z,13.15
2022-11-12T08:08:44.568Z,8.82
2022-11-12T08:11:29.257Z,10.10
2022-11-12T08:14:13.990Z,9.60
2022-11-12T08:16:58.930Z,11.80
2022-11-12T08:19:43.656Z,11.23
2022-11-12T08:22:28.420Z,10.43
2022-11-12T08:25:13.099Z,8.20
2022-11-12T08:27:58.818Z,7.97
2022-11-12T08:30:43.475Z,9.98
2022-11-12T08:33:28.400Z,17.70
2022-11-12T08:36:14.264Z,9.73
2022-11-12T08:38:59.110Z,8.48
2022-11-12T08:41:43.834Z,9.48
2022-11-12T08:44:28.697Z,9.40
2022-11-12T08:47:14.759Z,10.88
2022-11-12T08:49:59.639Z,9.75
2022-11-12T08:52:44.627Z,9.50
2022-11-12T08:55:30.257Z,10.68
2022-11-12T08:58:15.315Z,9.07
2022-11-12T09:01:04.350Z,9.30
2022-11-12T09:03:49.390Z,10.52
2022-11-12T09:06:34.481Z,10.25
2022-11-12T09:09:19.751Z,12.13
2022-11-12T09:12:12.378Z,11.30
2022-11-12T09:15:23.262Z,12.98
2022-11-12T09:18:06.232Z,13.38
2022-11-12T09:20:51.299Z,12.93
2022-11-12T09:23:36.465Z,14.60
2022-11-12T09:26:21.262Z,14.32
2022-11-12T09:29:05.912Z,13.20
2022-11-12T09:31:50.502Z,10.93
2022-11-12T09:34:35.323Z,14.23
2022-11-12T09:37:20.151Z,13.57
2022-11-12T09:40:06.247Z,14.18
2022-11-12T09:42:53.020Z,13.20
2022-11-12T09:45:38.400Z,13.05
2022-11-12T09:48:27.273Z,13.55
2022-11-12T09:51:16.312Z,10.95
2022-11-12T09:54:21.195Z,13.38
2022-11-12T09:59:50.871Z,13.65
2022-11-12T10:02:46.121Z,16.00
2022-11-12T10:05:36.569Z,17.35
2022-11-12T10:08:35.093Z,13.82
2022-11-12T10:11:22.897Z,13.23
2022-11-12T10:14:21.503Z,13.50
2022-11-12T10:17:09.748Z,12.65
2022-11-12T10:20:01.123Z,15.90
2022-11-12T10:22:58.440Z,13.65
2022-11-12T10:25:44.831Z,16.10
2022-11-12T10:28:38.429Z,13.85
2022-11-12T10:31:24.113Z,14.02
2022-11-12T10:34:16.395Z,14.40
2022-11-12T10:37:14.000Z,59.35
2022-11-12T10:39:58.818Z,99.97
2022-11-12T10:43:03.678Z,43.25
2022-11-12T10:45:49.523Z,59.65
2022-11-12T10:48:35.674Z,183.73
2022-11-12T10:51:39.162Z,92.97
2022-11-12T10:54:27.039Z,86.65
2022-11-12T10:57:25.392Z,22.77
2022-11-12T11:00:13.443Z,61.53
2022-11-12T11:02:58.955Z,13.80
2022-11-12T11:05:58.468Z,12.40
2022-11-12T11:08:44.825Z,13.68
2022-11-12T11:11:30.587Z,13.02
2022-11-12T11:14:34.904Z,12.75
2022-11-12T11:17:19.787Z,10.50
2022-11-12T11:20:05.983Z,9.77
2022-11-12T11:22:56.254Z,9.85
2022-11-12T11:25:42.700Z,11.88
2022-11-12T11:28:41.074Z,11.77
2022-11-12T11:31:44.404Z,13.43
2022-11-12T11:34:44.990Z,11.38
2022-11-12T11:37:30.965Z,10.30
2022-11-12T11:40:24.120Z,10.10
2022-11-12T11:43:11.878Z,13.20
2022-11-12T11:46:15.510Z,9.60
2022-11-12T11:49:15.722Z,9.88
2022-11-12T11:52:04.274Z,9.93
2022-11-12T11:55:02.552Z,8.50
2022-11-12T11:58:06.372Z,8.60
2022-11-12T12:01:06.362Z,8.55
2022-11-12T12:04:00.053Z,11.23
2022-11-12T12:07:00.447Z,8.85
2022-11-12T12:09:51.295Z,9.98
2022-11-12T12:12:42.161Z,9.55
2022-11-12T12:15:33.026Z,10.13
2022-11-12T12:18:20.975Z,10.23
2022-11-12T12:21:11.718Z,9.18
2022-11-12T12:24:00.974Z,12.05
2022-11-12T12:26:47.995Z,9.75
2022-11-12T12:29:51.716Z,9.63
2022-11-12T12:32:38.354Z,10.63
2022-11-12T12:35:26.502Z,11.60
2022-11-12T12:38:14.146Z,8.90
2022-11-12T12:41:05.132Z,11.90
2022-11-12T12:43:52.668Z,12.98
2022-11-12T12:46:40.470Z,11.90
2022-11-12T12:49:30.489Z,12.90
2022-11-12T12:52:15.454Z,12.23
2022-11-12T12:55:00.127Z,13.13
2022-11-12T12:57:45.269Z,12.70
2022-11-12T13:00:30.411Z,14.32
2022-11-12T13:03:35.136Z,17.42
2022-11-12T13:06:23.701Z,16.45
2022-11-12T13:09:14.885Z,15.77
2022-11-12T13:12:05.745Z,16.02
2022-11-12T13:14:52.042Z,17.40
2022-11-12T13:17:45.014Z,16.30
2022-11-12T13:20:34.329Z,16.67
2022-11-12T13:23:57.771Z,20.00
2022-11-12T13:26:43.665Z,18.67
2022-11-12T13:29:28.832Z,20.20
2022-11-12T13:32:30.401Z,19.23
2022-11-12T13:35:24.544Z,19.40
2022-11-12T13:38:10.430Z,19.23
2022-11-12T13:41:08.703Z,19.38
2022-11-12T13:43:53.782Z,19.92
2022-11-12T13:46:38.683Z,18.60
2022-11-12T13:49:23.689Z,20.15
2022-11-12T13:52:08.637Z,23.10
2022-11-12T13:55:00.878Z,22.52
2022-11-12T13:57:53.526Z,25.33
2022-11-12T14:00:38.602Z,24.17
2022-11-12T14:03:24.391Z,25.05
2022-11-12T14:06:32.126Z,25.95
2022-11-12T14:09:26.674Z,23.25
2022-11-12T14:12:21.602Z,24.65
2022-11-12T14:15:21.734Z,26.05
2022-11-12T14:18:17.353Z,25.35
2022-11-12T14:21:15.314Z,23.95
2022-11-12T14:24:01.772Z,28.77
2022-11-12T14:26:46.534Z,25.38
2022-11-12T14:29:35.362Z,27.98
2022-11-12T14:32:21.704Z,25.95
2022-11-12T14:35:24.855Z,27.40
2022-11-12T14:38:09.721Z,28.13
2022-11-12T14:40:59.622Z,26.77
2022-11-12T14:43:46.044Z,29.23
2022-11-12T14:46:36.614Z,29.20
2022-11-12T14:49:47.713Z,25.80
2022-11-12T14:52:35.235Z,23.90
2022-11-12T14:55:25.278Z,29.33
2022-11-12T14:58:14.958Z,28.23
2022-11-12T15:01:45.017Z,26.55
2022-11-12T15:04:25.022Z,42.95
2022-11-12T15:07:26.491Z,30.95
2022-11-12T15:10:30.538Z,29.05
2022-11-12T15:13:16.382Z,32.03
2022-11-12T15:16:08.761Z,28.48
2022-11-12T15:19:01.716Z,31.55
2022-11-12T15:21:47.999Z,30.17
2022-11-12T15:24:33.833Z,26.98
2022-11-12T15:27:34.770Z,26.77
2022-11-12T15:30:24.328Z,29.08
2022-11-12T15:33:17.374Z,26.67
2022-11-12T15:36:02.479Z,28.40
2022-11-12T15:38:54.137Z,26.55
2022-11-12T15:41:39.747Z,27.20
2022-11-12T15:44:25.336Z,27.35
2022-11-12T15:47:15.305Z,28.08
2022-11-12T15:50:00.586Z,29.25
2022-11-12T15:52:45.830Z,27.25
2022-11-12T15:55:31.918Z,28.42
2022-11-12T15:58:22.647Z,29.25
2022-11-12T16:01:07.818Z,34.15
2022-11-12T16:03:53.137Z,30.40
2022-11-12T16:06:38.133Z,31.80
2022-11-12T16:09:22.854Z,31.42
2022-11-12T16:12:11.957Z,33.60
2022-11-12T16:14:59.283Z,28.55
2022-11-12T16:17:45.167Z,28.77
2022-11-12T16:20:31.861Z,27.58
2022-11-12T16:23:16.534Z,26.80
2022-11-12T16:26:02.378Z,29.08
2022-11-12T16:28:47.147Z,29.90
2022-11-12T16:31:32.012Z,28.60
2022-11-12T16:34:16.770Z,26.40
2022-11-12T16:37:01.512Z,26.27
2022-11-12T16:39:46.298Z,53.15
2022-11-12T16:42:31.102Z,31.85
2022-11-12T16:45:17.259Z,28.80
2022-11-12T16:48:06.914Z,31.60
2022-11-12T16:50:51.788Z,29.27
2022-11-12T16:53:36.683Z,29.88
2022-11-12T16:56:22.313Z,28.55
2022-11-12T16:59:07.338Z,29.55
2022-11-12T17:01:52.281Z,26.40
2022-11-12T17:04:37.228Z,41.72
2022-11-12T17:07:22.020Z,41.10
2022-11-12T17:10:07.206Z,25.23
2022-11-12T17:12:52.461Z,29.00
2022-11-12T17:15:37.510Z,23.27
2022-11-12T17:18:22.292Z,25.23
2022-11-12T17:21:25.514Z,21.58
2022-11-12T17:24:10.553Z,20.70
2022-11-12T17:26:55.277Z,18.92
2022-11-12T17:29:40.005Z,22.88
2022-11-12T17:32:24.812Z,25.08
2022-11-12T17:35:09.765Z,20.85
2022-11-12T17:37:54.622Z,24.52
2022-11-12T17:40:39.391Z,22.40
2022-11-12T17:43:25.008Z,23.98
2022-11-12T17:46:10.195Z,28.25
2022-11-12T17:48:55.804Z,22.02
2022-11-12T17:51:40.578Z,23.35
2022-11-12T17:54:25.365Z,49.00
2022-11-12T17:57:10.372Z,28.00
2022-11-12T17:59:55.212Z,21.02
2022-11-12T18:02:40.001Z,20.90
2022-11-12T18:05:24.975Z,21.33
2022-11-12T18:08:10.099Z,26.92
2022-11-12T18:10:55.253Z,22.75
2022-11-12T18:13:40.654Z,20.60
2022-11-12T18:16:27.037Z,24.38
2022-11-12T18:19:12.807Z,23.60
2022-11-12T18:21:57.815Z,27.63
2022-11-12T18:24:42.631Z,28.38
2022-11-12T18:27:27.402Z,23.80
2022-11-12T18:30:17.969Z,24.05
2022-11-12T18:33:04.805Z,19.45
2022-11-12T18:35:59.245Z,21.27
2022-11-12T18:38:44.416Z,23.50
2022-11-12T18:41:30.170Z,20.30
2022-11-12T18:44:15.405Z,18.35
2022-11-12T18:47:00.452Z,21.67
2022-11-12T18:49:45.439Z,22.10
2022-11-12T18:52:30.170Z,20.02
2022-11-12T18:55:14.990Z,19.35
2022-11-12T18:58:00.208Z,19.92
2022-11-12T19:00:45.225Z,20.73
2022-11-12T19:03:30.207Z,20.05
2022-11-12T19:06:16.613Z,21.52
2022-11-12T19:09:01.883Z,20.02
2022-11-12T19:11:46.699Z,23.35
2022-11-12T19:14:31.517Z,21.92
2022-11-12T19:17:16.256Z,21.60
2022-11-12T19:20:01.132Z,21.10
2022-11-12T19:22:45.978Z,22.77
2022-11-12T19:25:31.044Z,23.20
2022-11-12T19:28:15.835Z,22.27
2022-11-12T19:31:04.610Z,21.00
2022-11-12T19:33:49.864Z,17.98
2022-11-12T19:36:34.565Z,21.10
2022-11-12T19:39:19.477Z,18.23
2022-11-12T19:42:07.162Z,22.65
2022-11-12T19:44:52.409Z,22.02
2022-11-12T19:47:37.246Z,23.48
2022-11-12T19:50:24.730Z,23.38
2022-11-12T19:53:09.856Z,23.27
2022-11-12T19:55:58.766Z,28.40
2022-11-12T19:58:47.159Z,24.45
2022-11-12T20:01:32.171Z,28.73
2022-11-12T20:04:21.519Z,30.83
2022-11-12T20:07:09.385Z,27.05
2022-11-12T20:10:00.607Z,27.25
2022-11-12T20:12:46.537Z,20.27
2022-11-12T20:15:31.264Z,17.40
2022-11-12T20:18:16.465Z,17.15
2022-11-12T20:21:04.837Z,18.33
2022-11-12T20:23:50.265Z,15.90
2022-11-12T20:26:35.636Z,15.65
2022-11-12T20:29:20.752Z,17.25
2022-11-12T20:32:05.822Z,19.00
2022-11-12T20:34:50.670Z,15.15
2022-11-12T20:37:35.610Z,14.18
2022-11-12T20:40:20.439Z,19.15
2022-11-12T20:43:05.357Z,18.42
2022-11-12T20:45:51.079Z,24.80
2022-11-12T20:48:41.537Z,27.95
2022-11-12T20:51:32.886Z,27.52
2022-11-12T20:54:18.105Z,21.98
2022-11-12T20:57:03.319Z,26.75
2022-11-12T20:59:51.236Z,22.05
2022-11-12T21:02:36.565Z,23.67
2022-11-12T21:05:21.153Z,25.30
2022-11-12T21:08:06.072Z,21.42
2022-11-12T21:10:51.059Z,25.05
2022-11-12T21:13:36.954Z,21.55
2022-11-12T21:16:22.110Z,22.23
2022-11-12T21:19:07.092Z,22.20
2022-11-12T21:21:52.374Z,21.35
2022-11-12T21:24:37.226Z,21.30
2022-11-12T21:27:22.103Z,20.55
2022-11-12T21:30:07.125Z,19.17
2022-11-12T21:32:52.297Z,21.55
2022-11-12T21:35:36.929Z,21.92
2022-11-12T21:38:22.751Z,22.70
2022-11-12T21:41:09.393Z,23.30
2022-11-12T21:43:54.644Z,20.60
2022-11-12T21:46:40.396Z,21.65
2022-11-12T21:49:25.235Z,17.38
2022-11-12T21:52:12.730Z,25.58
2022-11-12T21:54:57.949Z,18.95
2022-11-12T21:57:42.881Z,24.70
2022-11-12T22:00:41.684Z,22.48
2022-11-12T22:03:29.856Z,41.25
2022-11-12T22:06:15.183Z,35.45
2022-11-12T22:09:00.406Z,25.17
2022-11-12T22:11:45.193Z,24.45
2022-11-12T22:14:29.926Z,14.75
2022-11-12T22:17:14.613Z,24.17
2022-11-12T22:19:59.653Z,15.60
2022-11-12T22:22:44.830Z,18.55
2022-11-12T22:25:29.669Z,19.05
2022-11-12T22:28:14.415Z,13.77
2022-11-12T22:31:03.584Z,18.25
2022-11-12T22:33:48.728Z,12.98
2022-11-12T22:36:34.772Z,16.77
2022-11-12T22:39:19.525Z,15.15
2022-11-12T22:42:04.483Z,14.15
2022-11-12T22:44:49.654Z,17.63
2022-11-12T22:47:34.542Z,15.27
2022-11-12T22:50:19.251Z,15.60
2022-11-12T22:53:04.195Z,20.35
2022-11-12T22:55:49.033Z,17.88
2022-11-12T22:58:37.736Z,18.10
2022-11-12T23:01:22.806Z,18.38
2022-11-12T23:04:08.689Z,15.65
2022-11-12T23:06:53.922Z,18.45
2022-11-12T23:09:38.676Z,23.05
2022-11-12T23:12:23.474Z,16.05
2022-11-12T23:15:08.536Z,24.30
2022-11-12T23:17:53.565Z,29.13
2022-11-12T23:20:38.470Z,19.08
2022-11-12T23:23:23.230Z,17.50
2022-11-12T23:26:09.615Z,19.08
2022-11-12T23:28:54.816Z,15.10
2022-11-12T23:31:40.185Z,13.15
2022-11-12T23:34:25.356Z,15.05
2022-11-12T23:37:10.105Z,14.60
2022-11-12T23:39:54.897Z,14.65
2022-11-12T23:42:39.703Z,13.57
2022-11-12T23:45:24.763Z,16.48
2022-11-12T23:48:09.801Z,17.10
2022-11-12T23:51:05.241Z,19.25
2022-11-12T23:53:50.217Z,16.20
2022-11-12T23:56:35.033Z,15.07
2022-11-12T23:59:19.698Z,16.35
